Flight Track Log - Related Links

Times and Time Zones

All times are in EDT time to prevent confusion due to time zone crossing. See the N440XX flight status page for this flight to view local times or setup timezone preferences in your user account.

Time Position Orientation Groundspeed Altitude Reporting Facility
EDT Latitude Longitude Course Direction KTS MPH feet Rate Location/Type
Fri 10:39:20 AM 26.2094 -81.6892 107° East 244 281 3,800  Level Miami Center
Fri 10:40:31 AM 26.1847 -81.6117 110° East 282 325 6,900 2,702 Climbing Miami Center
Fri 10:41:31 AM 26.1450 -81.5478 125° Southeast 295 339 9,700 2,083 Climbing Miami Center
Fri 10:42:32 AM 26.0900 -81.4414 120° Southeast 341 392 11,100 2,182 Climbing Miami Center
Fri 10:43:32 AM 26.0425 -81.3542 121° Southeast 341 392 14,100 3,100 Climbing Miami Center
Fri 10:44:00 AM 25.9110 -81.0402 107° East  Level FlightAware Approximate
Fri 10:44:32 AM 25.9872 -81.2528 121° Southeast 346 398 17,300  Level Miami Center
Fri 10:45:32 AM 25.9564 -81.1636 111° Southeast 341 392 19,000 1,800 Climbing Miami Center
Fri 10:46:32 AM 25.9219 -81.0539 109° East 346 398 20,900 1,700 Climbing Miami Center
Fri 10:47:32 AM 25.8836 -80.9394 110° East 377 434 22,400 1,450 Climbing Miami Center
Fri 10:48:32 AM 25.8450 -80.8181 109° East 394 453 23,800 1,300 Climbing Miami Center
Fri 10:49:32 AM 25.8044 -80.6947 110° East 413 475 25,000 1,300 Climbing Miami Center
Fri 10:50:32 AM 25.7828 -80.5625 100° East 418 481 26,400 1,600 Climbing Miami Center
Fri 10:51:32 AM 25.7758 -80.4214 93° East 441 507 28,200 1,067 Climbing Miami Center
Fri 10:56:12 AM 25.6124 -79.5310 93° East 33,000 926 Climbing FlightAware ADS-B
Fri 10:56:43 AM 25.5950 -79.4546 104° East 531 611 33,000 885 Level FlightAware ADS-B
Fri 10:57:13 AM 25.5767 -79.3741 104° East 512 589 33,900 2,500 Climbing FlightAware ADS-B
Fri 10:57:55 AM 25.5541 -79.2750 104° East 476 548 36,000 2,561 Climbing FlightAware ADS-B
Fri 10:58:35 AM 25.5320 -79.1789 104° East 463 533 37,400 1,775 Climbing FlightAware ADS-B
Fri 10:59:06 AM 25.5157 -79.1075 104° East 463 533 38,100 1,180 Climbing FlightAware ADS-B
Fri 10:59:36 AM 25.5001 -79.0395 104° East 464 534 38,600 1,000 Climbing FlightAware ADS-B
Fri 11:00:06 AM 25.4836 -78.9681 104° East 466 536 39,100 771 Climbing FlightAware ADS-B
Fri 11:00:46 AM 25.4628 -78.8777 104° East 474 545 39,500 771 Climbing FlightAware ADS-B
Fri 11:01:16 AM 25.4458 -78.8043 104° East 475 547 40,000 909 Climbing FlightAware ADS-B
Fri 11:01:52 AM 25.4261 -78.7197 104° East 476 548 40,500 857 Climbing FlightAware ADS-B
Fri 11:02:26 AM 25.4080 -78.6417 104° East 475 547 41,000 469 Climbing FlightAware ADS-B
Fri 11:02:56 AM 25.3904 -78.5665 104° East 488 562 41,000  Level FlightAware ADS-B
Fri 11:03:27 AM 25.3738 -78.4957 104° East 498 573 41,000  Level FlightAware ADS-B
Fri 11:04:06 AM 25.3505 -78.3966 104° East 512 589 41,000  Level FlightAware ADS-B
Fri 11:04:48 AM 25.3252 -78.2896 104° East 522 601 41,000  Level FlightAware ADS-B
Fri 11:05:28 AM 25.2976 -78.1836 110° East 531 611 41,000  Level FlightAware ADS-B
Fri 11:06:07 AM 25.2511 -78.0892 119° Southeast 532 612 41,000  Level FlightAware ADS-B
Fri 11:06:46 AM 25.2138 -78.0157 119° Southeast 531 611 41,000  Level FlightAware ADS-B
Fri 11:07:28 AM 25.1556 -77.9009 119° Southeast 530 610 41,000  Level FlightAware ADS-B
Fri 11:08:05 AM 25.1101 -77.8120 119° Southeast 529 609 41,000  Level FlightAware ADS-B
Fri 11:08:36 AM 25.0765 -77.7463 119° Southeast 528 608 41,000  Level FlightAware ADS-B
Fri 11:09:06 AM 25.0405 -77.6761 119° Southeast 527 606 41,000  Level FlightAware ADS-B
Fri 11:09:37 AM 25.0023 -77.6018 119° Southeast 527 606 41,000  Level FlightAware ADS-B
Fri 11:10:07 AM 24.9636 -77.5267 119° Southeast 526 605 41,000  Level FlightAware ADS-B
Fri 11:10:45 AM 24.9208 -77.4437 119° Southeast 525 604 41,000  Level FlightAware ADS-B
Fri 11:11:25 AM 24.8740 -77.3544 119° Southeast 525 604 41,000  Level FlightAware ADS-B
Fri 11:11:59 AM 24.8304 -77.2714 120° Southeast 524 603 41,000  Level FlightAware ADS-B
Fri 11:12:35 AM 24.7871 -77.1891 119° Southeast 522 601 41,000  Level FlightAware ADS-B
Fri 11:13:05 AM 24.7558 -77.1297 119° Southeast 522 601 41,000  Level FlightAware ADS-B
Fri 11:13:35 AM 24.7150 -77.0523 120° Southeast 521 600 41,000  Level FlightAware ADS-B
Fri 11:14:27 AM 24.6981 -77.0204 120° Southeast 521 600 41,000  Level FlightAware ADS-B
Fri 11:16:20 AM 24.5149 -76.6747 120° Southeast 517 595 41,000  Level FlightAware ADS-B
Fri 11:17:32 AM 24.5253 -76.7011 120° Southeast 527 606 41,000  Level Miami Center
Fri 11:18:32 AM 24.4708 -76.5917 119° Southeast 522 601 41,000  Level Miami Center
Fri 11:19:32 AM 24.3911 -76.4481 121° Southeast 512 589 41,000  Level Miami Center
Fri 11:20:32 AM 24.3111 -76.3003 121° Southeast 512 589 41,000  Level Miami Center
Fri 11:21:32 AM 24.2394 -76.1636 120° Southeast 517 595 41,000  Level Miami Center
Fri 11:22:32 AM 24.1656 -76.0253 120° Southeast 517 595 41,000  Level Miami Center
Fri 11:23:32 AM 24.0936 -75.8914 120° Southeast 517 595 41,000  Level Miami Center
Fri 11:24:32 AM 24.0217 -75.7578 120° Southeast 517 595 41,000  Level Miami Center
Fri 11:25:32 AM 23.9475 -75.6219 121° Southeast 517 595 41,000  Level Miami Center
Fri 11:26:32 AM 23.8753 -75.4864 120° Southeast 517 595 41,000  Level Miami Center
Fri 11:27:32 AM 23.8028 -75.3486 120° Southeast 517 595 41,000  Level Miami Center
Fri 11:28:32 AM 23.7283 -75.2178 122° Southeast 512 589 41,000  Level Miami Center
Fri 11:29:32 AM 23.6558 -75.0850 121° Southeast 512 589 41,000  Level Miami Center
Fri 11:30:32 AM 23.5811 -74.9500 121° Southeast 512 589 41,000  Level Miami Center
Fri 11:31:32 AM 23.5083 -74.8197 121° Southeast 512 589 41,000  Level Miami Center
Fri 11:32:32 AM 23.4333 -74.6872 122° Southeast 512 589 41,000  Level Miami Center
Fri 11:33:32 AM 23.3603 -74.5550 121° Southeast 512 589 41,000  Level Miami Center
Fri 11:34:32 AM 23.2869 -74.4206 121° Southeast 512 589 41,000  Level Miami Center
Fri 11:35:32 AM 23.2203 -74.3044 122° Southeast 507 583 41,000  Level Miami Center
Fri 11:36:32 AM 23.1492 -74.1725 120° Southeast 507 583 41,000  Level Miami Center
Fri 11:37:32 AM 23.0736 -74.0408 122° Southeast 507 583 41,000  Level Miami Center
Fri 11:38:32 AM 22.9981 -73.9094 122° Southeast 507 583 41,000  Level Miami Center
Fri 11:44:53 AM 22.5204 -73.0617 121° Southeast 512 589 41,000  Level FlightAware ADS-B (MTPP / PAP)
Fri 11:45:06 AM 22.5056 -73.0359 121° Southeast 512 589 41,000  Level FlightAware ADS-B (MTPP / PAP)
Fri 11:49:21 AM 22.1852 -72.4790 121° Southeast 513 590 41,000  Level FlightAware ADS-B (MTPP / PAP)
Fri 11:50:32 AM 22.0967 -72.3325 121° Southeast 509 586 41,000  Level Miami Center
Fri 11:51:32 AM 22.0217 -72.2031 122° Southeast 509 586 41,000  Level Miami Center
Fri 11:52:32 AM 21.9467 -72.0736 122° Southeast 509 586 41,000  Level Miami Center
Fri 11:53:32 AM 21.8717 -71.9444 122° Southeast 509 586 41,000  Level Miami Center
Fri 11:54:32 AM 21.7964 -71.8156 122° Southeast 509 586 41,000  Level Miami Center
Fri 11:55:32 AM 21.7192 -71.6844 122° Southeast 509 586 41,000  Level Miami Center
Fri 11:56:32 AM 21.6528 -71.5731 123° Southeast 502 578 41,000  Level Miami Center
Fri 11:57:32 AM 21.5772 -71.4444 122° Southeast 502 578 41,000  Level Miami Center
Fri 11:58:32 AM 21.5039 -71.3206 122° Southeast 502 578 41,000  Level Miami Center
Fri 11:59:32 AM 21.4261 -71.1900 123° Southeast 511 588 41,000  Level Miami Center
Fri 12:00:32 PM 21.3683 -71.0944 123° Southeast 511 588 41,000  Level Miami Center
Fri 12:05:52 PM 20.9369 -70.3626 122° Southeast 503 579 41,000  Level FlightAware ADS-B (MTPP / PAP)
Fri 12:06:24 PM 20.8950 -70.2928 122° Southeast 502 578 41,000  Level FlightAware ADS-B (MTPP / PAP)
Fri 12:06:30 PM 20.8891 -70.2830 122° Southeast 502 578 41,000  Level FlightAware ADS-B (MTPP / PAP)
Fri 12:12:04 PM 20.4866 -69.6185 122° Southeast 502 578 41,000  Level FlightAware ADS-B (MTPP / PAP)
Fri 12:13:24 PM 20.3667 -69.4333 122° Southeast 500 575 41,000  Level San Juan Center
Fri 12:14:24 PM 20.3000 -69.3167 121° Southeast 490 564 41,000  Level San Juan Center
Fri 12:15:32 PM 20.2111 -69.1617 121° Southeast 505 581 41,000  Level Miami Center
Fri 12:16:32 PM 20.1364 -69.0381 123° Southeast 505 581 41,000  Level Miami Center
Fri 12:17:32 PM 20.0592 -68.9125 123° Southeast 505 581 41,000  Level Miami Center
Fri 12:18:32 PM 19.9822 -68.7914 124° Southeast 505 581 41,000  Level Miami Center
Fri 12:19:32 PM 19.9094 -68.6681 122° Southeast 505 581 41,000 -500 Level Miami Center
Fri 12:20:32 PM 19.8297 -68.5408 124° Southeast 505 581 40,000 -1,150 Descending Miami Center
Fri 12:21:32 PM 19.7503 -68.4158 124° Southeast 510 587 38,700 -1,304 Descending Miami Center
Fri 12:22:27 PM 19.6667 -68.3000 127° Southeast 510 587 37,500 -1,461 Descending San Juan Center
Fri 12:23:27 PM 19.5833 -68.1833 127° Southeast 490 564 35,900 -1,537 Descending San Juan Center
Fri 12:24:28 PM 19.5167 -68.0500 118° Southeast 480 552 34,400 -1,388 Descending San Juan Center
Fri 12:25:28 PM 19.4500 -67.9333 121° Southeast 490 564 33,100 -1,388 Descending San Juan Center
Fri 12:26:29 PM 19.3833 -67.8167 121° Southeast 480 552 31,600 -1,041 Descending San Juan Center
Fri 12:27:29 PM 19.3167 -67.6833 118° Southeast 480 552 31,000 -600 Descending San Juan Center
Fri 12:28:29 PM 19.2500 -67.5667 121° Southeast 470 541 30,400 -1,289 Descending San Juan Center
Fri 12:29:30 PM 19.1833 -67.4500 121° Southeast 470 541 28,400 -2,341 Descending San Juan Center
Fri 12:31:31 PM 19.0667 -67.2000 116° Southeast 470 541 23,300 -2,486 Descending San Juan Center
Fri 12:32:31 PM 19.0000 -67.0833 121° Southeast 430 495 20,900 -2,450 Descending San Juan Center
Fri 12:33:31 PM 18.9500 -66.9667 114° Southeast 420 483 18,400 -2,281 Descending San Juan Center
Fri 12:34:32 PM 18.8833 -66.8667 125° Southeast 390 449 16,300 -2,083 Descending San Juan Center
Fri 12:35:32 PM 18.8333 -66.7667 118° Southeast 400 460 14,200 -2,000 Descending San Juan Center
Fri 12:36:32 PM 18.7833 -66.6667 118° Southeast 360 414 12,300 -1,750 Descending San Juan Center
Fri 12:37:32 PM 18.7333 -66.5833 122° Southeast 300 345 10,700 -1,488 Descending San Juan Center
Fri 12:38:33 PM 18.6833 -66.5167 128° Southeast 290 334 9,300 -1,438 Descending San Juan Center
Fri 12:39:33 PM 18.6333 -66.4500 128° Southeast 290 334 7,800 -1,550 Descending San Juan Center
Fri 12:40:33 PM 18.5833 -66.4000 137° Southeast 260 299 6,200 -1,438 Descending San Juan Center
Fri 12:41:34 PM 18.5333 -66.3333 128° Southeast 260 299 4,900 -1,388 Descending San Juan Center
Fri 12:42:34 PM 18.4833 -66.2667 128° Southeast 270 311 3,400 -942 Descending San Juan Center
Fri 12:43:35 PM 18.4500 -66.2167 125° Southeast 220 253 3,000 -347 Descending San Juan Center
Fri 12:44:35 PM 18.4333 -66.1833 118° Southeast 200 230 2,700 -500 Descending San Juan Center
Fri 12:45:35 PM 18.4333 -66.1167 90° East 190 219 2,000 -694 Descending San Juan Center
Fri 12:46:36 PM 18.4333 -66.0667 90° East 160 184 1,300 -645 Descending San Juan Center
Fri 12:47:36 PM 18.4167 -66.0333 118° Southeast 120 138 700 -600 Descending San Juan Center

Login

Don't have an account? Register now (free) for customized features, flight alerts, and more!